GCFV

Fuerteventura Airport

Fuerteventura Island, Spain
METAR GCFV 191500Z 06011KT 9999 FEW026 25/20 Q1015
Observed Flight Rules
Aug-19 @ 15:00 UTC (39 minutes ago) Visual Flight Rules
Wind Visibility Clouds
60° at 11 knots 10,000+ meters
  • Few at 2,600' AGL
Temperatures Readings
Current 25°C / 77°F
Dewpoint 20°C / 68°F
Humidity 74%
Altimeter 29.97" Hg
Pressure 1015 hPa
Elevation 23
METAR GCFV 191500Z 06011KT 9999 FEW026 25/20 Q1015
Observed Flight Rules
Aug-19 @ 15:00 UTC
(39 minutes ago)
VFR
Wind Visibility
60° at 11 knots 10,000+ meters
Clouds
  • Few at 2,600' AGL
Temperature Dewpoint
25°C / 77°F 20°C / 68°F
Humidity Altimeter Pressure
74% 29.97" Hg 1015 hPa